createdAt,value
2018-04-07T00:00:01.938Z,789.77
2018-04-07T00:00:06.156Z,789.77
2018-04-07T00:00:10.361Z,789.74
2018-04-07T00:00:14.246Z,789.74
2018-04-07T00:00:18.237Z,789.7
2018-04-07T00:00:22.344Z,789.75
2018-04-07T00:00:26.446Z,789.73
2018-04-07T00:00:30.229Z,789.73
2018-04-07T00:00:34.230Z,789.74
2018-04-07T00:00:38.552Z,789.71
2018-04-07T00:00:42.773Z,789.69
2018-04-07T00:00:46.882Z,789.68
2018-04-07T00:00:51.095Z,789.69
2018-04-07T00:00:55.193Z,789.7
2018-04-07T00:00:59.401Z,789.65
2018-04-07T00:01:03.862Z,789.65
2018-04-07T00:01:07.964Z,789.66
2018-04-07T00:01:12.065Z,789.62
2018-04-07T00:01:16.167Z,789.62
2018-04-07T00:01:20.271Z,789.64
2018-04-07T00:01:24.376Z,789.59
2018-04-07T00:01:28.589Z,789.56
2018-04-07T00:01:32.586Z,789.61
2018-04-07T00:01:36.693Z,789.63
2018-04-07T00:01:40.910Z,789.59
2018-04-07T00:01:45.013Z,789.59
2018-04-07T00:01:49.170Z,789.59
2018-04-07T00:01:53.165Z,789.61
2018-04-07T00:01:57.276Z,789.57
2018-04-07T00:02:01.276Z,789.55
2018-04-07T00:02:05.684Z,789.57
2018-04-07T00:02:09.569Z,789.59
2018-04-07T00:02:13.780Z,789.54
2018-04-07T00:02:17.996Z,789.54
2018-04-07T00:02:22.013Z,789.57
2018-04-07T00:02:25.900Z,789.55
2018-04-07T00:02:29.789Z,789.52
2018-04-07T00:02:33.782Z,789.55
2018-04-07T00:02:37.892Z,789.54
2018-04-07T00:02:42.101Z,789.53
2018-04-07T00:02:46.310Z,789.53
2018-04-07T00:02:50.207Z,789.53
2018-04-07T00:02:54.312Z,789.52
2018-04-07T00:02:58.414Z,789.53
2018-04-07T00:03:02.658Z,789.49
2018-04-07T00:03:06.650Z,789.5
2018-04-07T00:03:10.643Z,789.48
2018-04-07T00:03:14.750Z,789.47
2018-04-07T00:03:18.741Z,789.49
2018-04-07T00:03:22.841Z,789.48
2018-04-07T00:03:27.048Z,789.5
2018-04-07T00:03:30.933Z,789.46
2018-04-07T00:03:35.148Z,789.46
2018-04-07T00:03:39.362Z,789.46
2018-04-07T00:03:43.580Z,789.45
2018-04-07T00:03:47.682Z,789.41
2018-04-07T00:03:51.676Z,789.42
2018-04-07T00:03:55.887Z,789.38
2018-04-07T00:04:00.002Z,789.4
2018-04-07T00:04:04.325Z,789.37
2018-04-07T00:04:08.430Z,789.39
2018-04-07T00:04:12.369Z,789.38
2018-04-07T00:04:16.474Z,789.34
2018-04-07T00:04:20.467Z,789.33
2018-04-07T00:04:24.677Z,789.35
2018-04-07T00:04:28.792Z,789.31
2018-04-07T00:04:32.796Z,789.3
2018-04-07T00:04:37.006Z,789.3
2018-04-07T00:04:41.122Z,789.29
2018-04-07T00:04:45.113Z,789.28
2018-04-07T00:04:49.216Z,789.29
2018-04-07T00:04:53.426Z,789.27
2018-04-07T00:04:57.423Z,789.24
2018-04-07T00:05:01.364Z,789.24
2018-04-07T00:05:05.465Z,789.27
2018-04-07T00:05:09.674Z,789.24
2018-04-07T00:05:13.677Z,789.22
2018-04-07T00:05:17.779Z,789.19
2018-04-07T00:05:22.094Z,789.2
2018-04-07T00:05:26.402Z,789.19
2018-04-07T00:05:30.395Z,789.19
2018-04-07T00:05:34.384Z,789.18
2018-04-07T00:05:38.486Z,789.14
2018-04-07T00:05:42.480Z,789.14
2018-04-07T00:05:46.370Z,789.14
2018-04-07T00:05:50.470Z,789.12
2018-04-07T00:05:54.686Z,789.14
2018-04-07T00:05:58.678Z,789.12
2018-04-07T00:06:03.040Z,789.11
2018-04-07T00:06:07.358Z,789.09
2018-04-07T00:06:11.458Z,789.08
2018-04-07T00:06:15.449Z,789.1
2018-04-07T00:06:19.548Z,789.07
2018-04-07T00:06:23.540Z,789.08
2018-04-07T00:06:27.746Z,789.07
2018-04-07T00:06:31.632Z,789.06
2018-04-07T00:06:35.628Z,789.05
2018-04-07T00:06:39.835Z,789.02
2018-04-07T00:06:43.618Z,789.03
2018-04-07T00:06:47.828Z,789.01
2018-04-07T00:06:52.052Z,788.96
2018-04-07T00:06:56.263Z,788.95
2018-04-07T00:07:00.257Z,788.94
2018-04-07T00:07:04.478Z,789.01
2018-04-07T00:07:08.471Z,789
2018-04-07T00:07:12.572Z,788.98
2018-04-07T00:07:16.777Z,788.98
2018-04-07T00:07:20.875Z,788.99
2018-04-07T00:07:25.096Z,788.92
2018-04-07T00:07:29.193Z,788.93
2018-04-07T00:07:33.448Z,788.93
2018-04-07T00:07:37.673Z,788.92
2018-04-07T00:07:41.673Z,788.92
2018-04-07T00:07:45.893Z,788.95
2018-04-07T00:07:49.888Z,788.96
2018-04-07T00:07:54.100Z,788.95
2018-04-07T00:07:58.200Z,788.93
2018-04-07T00:08:02.405Z,788.93
2018-04-07T00:08:06.512Z,788.96
2018-04-07T00:08:10.828Z,788.92
2018-04-07T00:08:15.038Z,788.9
2018-04-07T00:08:19.144Z,788.89
2018-04-07T00:08:23.247Z,788.89
2018-04-07T00:08:27.344Z,788.88
2018-04-07T00:08:31.549Z,788.88
2018-04-07T00:08:35.552Z,788.87
2018-04-07T00:08:39.768Z,788.84
2018-04-07T00:08:43.984Z,788.86
2018-04-07T00:08:47.872Z,788.86
2018-04-07T00:08:51.756Z,788.77
2018-04-07T00:08:55.857Z,788.79
2018-04-07T00:08:59.857Z,788.77
2018-04-07T00:09:03.958Z,788.84
2018-04-07T00:09:07.850Z,788.82
2018-04-07T00:09:12.068Z,788.8
2018-04-07T00:09:16.211Z,788.83
2018-04-07T00:09:20.204Z,788.78
2018-04-07T00:09:24.318Z,788.74
2018-04-07T00:09:28.207Z,788.72
2018-04-07T00:09:32.422Z,788.74
2018-04-07T00:09:36.534Z,788.73
2018-04-07T00:09:40.749Z,788.7
2018-04-07T00:09:44.892Z,788.73
2018-04-07T00:09:49.290Z,788.73
2018-04-07T00:09:53.768Z,788.71
2018-04-07T00:09:57.760Z,788.69
2018-04-07T00:10:01.753Z,788.7
2018-04-07T00:10:06.024Z,788.68
2018-04-07T00:10:10.138Z,788.68
2018-04-07T00:10:14.026Z,788.64
2018-04-07T00:10:18.127Z,788.64
2018-04-07T00:10:22.244Z,788.64
2018-04-07T00:10:26.461Z,788.64
2018-04-07T00:10:30.561Z,788.58
2018-04-07T00:10:34.552Z,788.61
2018-04-07T00:10:38.543Z,788.64
2018-04-07T00:10:42.757Z,788.62
2018-04-07T00:10:46.642Z,788.58
2018-04-07T00:10:50.686Z,788.59
2018-04-07T00:10:54.576Z,788.57
2018-04-07T00:10:58.573Z,788.57
2018-04-07T00:11:02.707Z,788.54
2018-04-07T00:11:06.822Z,788.58
2018-04-07T00:11:10.717Z,788.56
2018-04-07T00:11:14.607Z,788.55
2018-04-07T00:11:18.495Z,788.53
2018-04-07T00:11:22.706Z,788.51
2018-04-07T00:11:26.818Z,788.51
2018-04-07T00:11:30.925Z,788.46
2018-04-07T00:11:35.145Z,788.47
2018-04-07T00:11:39.364Z,788.49
2018-04-07T00:11:43.472Z,788.47
2018-04-07T00:11:47.576Z,788.5
2018-04-07T00:11:51.686Z,788.49
2018-04-07T00:11:55.912Z,788.48
2018-04-07T00:12:00.028Z,788.5
2018-04-07T00:12:04.232Z,788.46
2018-04-07T00:12:08.232Z,788.45
2018-04-07T00:12:12.555Z,788.39
2018-04-07T00:12:16.335Z,788.39
2018-04-07T00:12:20.555Z,788.39
2018-04-07T00:12:24.658Z,788.4
2018-04-07T00:12:28.647Z,788.44
2018-04-07T00:12:32.857Z,788.44
2018-04-07T00:12:37.065Z,788.4
2018-04-07T00:12:41.383Z,788.43
2018-04-07T00:12:45.490Z,788.39
2018-04-07T00:12:49.488Z,788.4
2018-04-07T00:12:53.714Z,788.43
2018-04-07T00:12:57.818Z,788.42
2018-04-07T00:13:01.919Z,788.37
2018-04-07T00:13:06.134Z,788.37
2018-04-07T00:13:10.244Z,788.39
2018-04-07T00:13:14.351Z,788.38
2018-04-07T00:13:18.565Z,788.35
2018-04-07T00:13:22.664Z,788.34
2018-04-07T00:13:26.656Z,788.38
2018-04-07T00:13:30.873Z,788.39
2018-04-07T00:13:35.191Z,788.36
2018-04-07T00:13:39.191Z,788.41
2018-04-07T00:13:43.405Z,788.38
2018-04-07T00:13:47.764Z,788.39
2018-04-07T00:13:51.864Z,788.39
2018-04-07T00:13:55.965Z,788.36
2018-04-07T00:13:59.860Z,788.36
2018-04-07T00:14:04.070Z,788.36
2018-04-07T00:14:07.962Z,788.36
2018-04-07T00:14:12.062Z,788.36
2018-04-07T00:14:16.157Z,788.38
2018-04-07T00:14:20.149Z,788.36
2018-04-07T00:14:24.140Z,788.36
2018-04-07T00:14:28.138Z,788.33
2018-04-07T00:14:32.132Z,788.38
2018-04-07T00:14:36.137Z,788.4
2018-04-07T00:14:40.244Z,788.38
2018-04-07T00:14:44.471Z,788.4
2018-04-07T00:14:48.586Z,788.4
2018-04-07T00:14:52.693Z,788.43
2018-04-07T00:14:56.625Z,788.38
2018-04-07T00:15:00.682Z,788.42
2018-04-07T00:15:04.787Z,788.4
2018-04-07T00:15:08.894Z,788.42
2018-04-07T00:15:13.104Z,788.42
2018-04-07T00:15:17.094Z,788.43
2018-04-07T00:15:21.193Z,788.43
2018-04-07T00:15:25.302Z,788.43
2018-04-07T00:15:29.439Z,788.4
2018-04-07T00:15:33.328Z,788.41
2018-04-07T00:15:37.535Z,788.44
2018-04-07T00:15:41.639Z,788.46
2018-04-07T00:15:45.740Z,788.44
2018-04-07T00:15:49.843Z,788.45
2018-04-07T00:15:53.940Z,788.44
2018-04-07T00:15:58.148Z,788.45
2018-04-07T00:16:02.297Z,788.44
2018-04-07T00:16:06.291Z,788.48
2018-04-07T00:16:10.288Z,788.48
2018-04-07T00:16:14.501Z,788.48
2018-04-07T00:16:18.709Z,788.47
2018-04-07T00:16:22.820Z,788.44
2018-04-07T00:16:27.190Z,788.43
2018-04-07T00:16:31.402Z,788.43
2018-04-07T00:16:35.510Z,788.42
2018-04-07T00:16:39.721Z,788.42
2018-04-07T00:16:43.607Z,788.43
2018-04-07T00:16:47.493Z,788.45
2018-04-07T00:16:51.271Z,788.47
2018-04-07T00:16:55.268Z,788.47
2018-04-07T00:16:59.379Z,788.48
2018-04-07T00:17:03.691Z,788.5
2018-04-07T00:17:07.793Z,788.48
2018-04-07T00:17:12.005Z,788.5
2018-04-07T00:17:16.106Z,788.51
2018-04-07T00:17:19.992Z,788.48
2018-04-07T00:17:24.200Z,788.47
2018-04-07T00:17:28.087Z,788.52
2018-04-07T00:17:32.189Z,788.48
2018-04-07T00:17:36.407Z,788.48
2018-04-07T00:17:40.305Z,788.49
2018-04-07T00:17:44.404Z,788.52
2018-04-07T00:17:48.518Z,788.5
2018-04-07T00:17:52.403Z,788.51
2018-04-07T00:17:56.508Z,788.49
2018-04-07T00:18:00.507Z,788.47
2018-04-07T00:18:04.503Z,788.51
2018-04-07T00:18:08.823Z,788.49
2018-04-07T00:18:12.922Z,788.58
2018-04-07T00:18:16.701Z,788.54
2018-04-07T00:18:20.814Z,788.54
2018-04-07T00:18:24.912Z,788.58
2018-04-07T00:18:29.014Z,788.52
2018-04-07T00:18:33.014Z,788.53
2018-04-07T00:18:37.222Z,788.53
2018-04-07T00:18:41.544Z,788.56
2018-04-07T00:18:45.645Z,788.5
2018-04-07T00:18:49.957Z,788.55
2018-04-07T00:18:53.842Z,788.49
2018-04-07T00:18:57.832Z,788.48
2018-04-07T00:19:01.832Z,788.5
2018-04-07T00:19:05.936Z,788.51
2018-04-07T00:19:10.154Z,788.55
2018-04-07T00:19:13.930Z,788.54
2018-04-07T00:19:18.038Z,788.55
2018-04-07T00:19:22.248Z,788.54
2018-04-07T00:19:26.454Z,788.55
2018-04-07T00:19:30.445Z,788.55
2018-04-07T00:19:34.651Z,788.55
2018-04-07T00:19:38.753Z,788.56
2018-04-07T00:19:42.966Z,788.55
2018-04-07T00:19:47.067Z,788.57
2018-04-07T00:19:51.179Z,788.51
2018-04-07T00:19:55.183Z,788.57
2018-04-07T00:19:59.181Z,788.57
2018-04-07T00:20:03.740Z,788.61
2018-04-07T00:20:07.840Z,788.57
2018-04-07T00:20:11.833Z,788.6
2018-04-07T00:20:15.849Z,788.57
2018-04-07T00:20:19.844Z,788.57
2018-04-07T00:20:23.836Z,788.59
2018-04-07T00:20:28.047Z,788.62
2018-04-07T00:20:32.261Z,788.57
2018-04-07T00:20:36.188Z,788.6
2018-04-07T00:20:40.292Z,788.62
2018-04-07T00:20:44.499Z,788.58
2018-04-07T00:20:48.710Z,788.6
2018-04-07T00:20:52.910Z,788.58
2018-04-07T00:20:57.234Z,788.58
2018-04-07T00:21:01.348Z,788.58
2018-04-07T00:21:05.451Z,788.56
2018-04-07T00:21:09.448Z,788.58
2018-04-07T00:21:13.768Z,788.57
2018-04-07T00:21:17.981Z,788.6
2018-04-07T00:21:22.188Z,788.59
2018-04-07T00:21:26.184Z,788.56
2018-04-07T00:21:30.079Z,788.52
2018-04-07T00:21:34.407Z,788.58
2018-04-07T00:21:38.622Z,788.57
2018-04-07T00:21:42.510Z,788.58
2018-04-07T00:21:46.613Z,788.57
2018-04-07T00:21:50.720Z,788.6
2018-04-07T00:21:54.832Z,788.62
2018-04-07T00:21:58.930Z,788.64
2018-04-07T00:22:02.865Z,788.62
2018-04-07T00:22:07.080Z,788.62
2018-04-07T00:22:11.188Z,788.64
2018-04-07T00:22:15.402Z,788.66
2018-04-07T00:22:19.403Z,788.62
2018-04-07T00:22:23.501Z,788.57
2018-04-07T00:22:27.711Z,788.62
2018-04-07T00:22:31.923Z,788.61
2018-04-07T00:22:36.131Z,788.59
2018-04-07T00:22:40.451Z,788.6
2018-04-07T00:22:44.662Z,788.61
2018-04-07T00:22:48.766Z,788.55
2018-04-07T00:22:52.971Z,788.57
2018-04-07T00:22:57.068Z,788.61
2018-04-07T00:23:01.176Z,788.63
2018-04-07T00:23:05.171Z,788.6
2018-04-07T00:23:09.271Z,788.63
2018-04-07T00:23:13.266Z,788.58
2018-04-07T00:23:17.151Z,788.59
2018-04-07T00:23:21.353Z,788.62
2018-04-07T00:23:25.669Z,788.61
2018-04-07T00:23:29.554Z,788.55
2018-04-07T00:23:33.561Z,788.52
2018-04-07T00:23:37.770Z,788.59
2018-04-07T00:23:41.877Z,788.6
2018-04-07T00:23:46.194Z,788.59
2018-04-07T00:23:50.185Z,788.58
2018-04-07T00:23:54.185Z,788.58
2018-04-07T00:23:58.288Z,788.5
2018-04-07T00:24:02.481Z,788.6
2018-04-07T00:24:06.700Z,788.54
2018-04-07T00:24:10.797Z,788.57
2018-04-07T00:24:14.680Z,788.56
2018-04-07T00:24:18.780Z,788.53
2018-04-07T00:24:22.786Z,788.51
2018-04-07T00:24:26.914Z,788.5
2018-04-07T00:24:30.905Z,788.49
2018-04-07T00:24:34.790Z,788.52
2018-04-07T00:24:38.783Z,788.5
2018-04-07T00:24:42.798Z,788.5
2018-04-07T00:24:47.132Z,788.48
2018-04-07T00:24:51.123Z,788.51
2018-04-07T00:24:55.121Z,788.52
2018-04-07T00:24:59.120Z,788.5
2018-04-07T00:25:03.233Z,788.52
2018-04-07T00:25:07.337Z,788.45
2018-04-07T00:25:11.434Z,788.45
2018-04-07T00:25:15.676Z,788.48
2018-04-07T00:25:19.461Z,788.5
2018-04-07T00:25:23.672Z,788.48
2018-04-07T00:25:27.772Z,788.47
2018-04-07T00:25:31.765Z,788.48
2018-04-07T00:25:35.979Z,788.48
2018-04-07T00:25:40.191Z,788.43
2018-04-07T00:25:44.077Z,788.42
2018-04-07T00:25:48.073Z,788.41
2018-04-07T00:25:52.068Z,788.48
2018-04-07T00:25:56.181Z,788.45
2018-04-07T00:26:00.283Z,788.45
2018-04-07T00:26:04.479Z,788.45
2018-04-07T00:26:08.472Z,788.44
2018-04-07T00:26:12.575Z,788.41
2018-04-07T00:26:16.675Z,788.43
2018-04-07T00:26:20.786Z,788.43
2018-04-07T00:26:24.777Z,788.43
2018-04-07T00:26:28.778Z,788.43
2018-04-07T00:26:33.097Z,788.4
2018-04-07T00:26:37.203Z,788.44
2018-04-07T00:26:41.195Z,788.42
2018-04-07T00:26:45.404Z,788.41
2018-04-07T00:26:49.503Z,788.42
2018-04-07T00:26:53.609Z,788.42
2018-04-07T00:26:57.609Z,788.37
2018-04-07T00:27:01.859Z,788.34
2018-04-07T00:27:05.850Z,788.36
2018-04-07T00:27:09.847Z,788.35
2018-04-07T00:27:13.950Z,788.38
2018-04-07T00:27:18.263Z,788.35
2018-04-07T00:27:22.368Z,788.36
2018-04-07T00:27:26.589Z,788.36
2018-04-07T00:27:30.806Z,788.32
2018-04-07T00:27:34.690Z,788.36
2018-04-07T00:27:38.797Z,788.32
2018-04-07T00:27:42.899Z,788.34
2018-04-07T00:27:46.896Z,788.33
2018-04-07T00:27:51.112Z,788.35
2018-04-07T00:27:55.221Z,788.32
2018-04-07T00:27:59.436Z,788.29
2018-04-07T00:28:03.653Z,788.29
2018-04-07T00:28:07.649Z,788.28
2018-04-07T00:28:11.641Z,788.3
2018-04-07T00:28:15.847Z,788.27
2018-04-07T00:28:20.163Z,788.29
2018-04-07T00:28:24.370Z,788.28
2018-04-07T00:28:28.468Z,788.3
2018-04-07T00:28:32.684Z,788.25
2018-04-07T00:28:36.675Z,788.23
2018-04-07T00:28:40.567Z,788.23
2018-04-07T00:28:44.347Z,788.22
2018-04-07T00:28:48.372Z,788.23
2018-04-07T00:28:52.471Z,788.22
2018-04-07T00:28:56.695Z,788.21
2018-04-07T00:29:01.022Z,788.24
2018-04-07T00:29:05.225Z,788.2
2018-04-07T00:29:09.114Z,788.2
2018-04-07T00:29:12.996Z,788.18
2018-04-07T00:29:17.116Z,788.19
2018-04-07T00:29:21.438Z,788.2
2018-04-07T00:29:25.431Z,788.18
2018-04-07T00:29:29.208Z,788.17
2018-04-07T00:29:33.307Z,788.18
2018-04-07T00:29:37.409Z,788.17
2018-04-07T00:29:41.401Z,788.16
2018-04-07T00:29:45.394Z,788.14
2018-04-07T00:29:49.494Z,788.14
2018-04-07T00:29:53.598Z,788.17
2018-04-07T00:29:57.816Z,788.15
2018-04-07T00:30:01.914Z,788.15
2018-04-07T00:30:05.924Z,788.1
2018-04-07T00:30:10.132Z,788.1
2018-04-07T00:30:14.344Z,788.1
2018-04-07T00:30:18.446Z,788.14
2018-04-07T00:30:22.656Z,788.16
2018-04-07T00:30:26.648Z,788.12
2018-04-07T00:30:30.639Z,788.13
2018-04-07T00:30:34.522Z,788.14
2018-04-07T00:30:38.515Z,788.08
2018-04-07T00:30:42.399Z,788.09
2018-04-07T00:30:46.617Z,788.09
2018-04-07T00:30:50.833Z,788.1
2018-04-07T00:30:54.934Z,788.04
2018-04-07T00:30:59.143Z,788.09
2018-04-07T00:31:03.353Z,788.06
2018-04-07T00:31:07.346Z,788.09
2018-04-07T00:31:11.563Z,788.06
2018-04-07T00:31:15.567Z,788.1
2018-04-07T00:31:19.888Z,788.06
2018-04-07T00:31:23.997Z,788.04
2018-04-07T00:31:28.231Z,788.08
2018-04-07T00:31:32.437Z,788.04
2018-04-07T00:31:36.540Z,788.06
2018-04-07T00:31:40.638Z,788.07
2018-04-07T00:31:44.628Z,788.1
2018-04-07T00:31:48.731Z,788.03
2018-04-07T00:31:52.868Z,788.05
2018-04-07T00:31:56.760Z,788.06
2018-04-07T00:32:01.073Z,788.04
2018-04-07T00:32:05.175Z,788.1
2018-04-07T00:32:09.499Z,788.07
2018-04-07T00:32:13.608Z,788.03
2018-04-07T00:32:17.821Z,788.03
2018-04-07T00:32:22.044Z,788.05
2018-04-07T00:32:26.043Z,788.05
2018-04-07T00:32:30.037Z,788.04
2018-04-07T00:32:34.245Z,788.02
2018-04-07T00:32:38.238Z,788.03
2018-04-07T00:32:42.232Z,788.05
2018-04-07T00:32:46.440Z,788
2018-04-07T00:32:50.538Z,787.95
2018-04-07T00:32:54.644Z,788.01
2018-04-07T00:32:58.845Z,788
2018-04-07T00:33:02.954Z,788
2018-04-07T00:33:07.163Z,787.99
2018-04-07T00:33:11.477Z,788.01
2018-04-07T00:33:15.683Z,787.99
2018-04-07T00:33:19.790Z,787.98
2018-04-07T00:33:24.124Z,788.01
2018-04-07T00:33:28.227Z,788.02
2018-04-07T00:33:32.328Z,787.97
2018-04-07T00:33:36.551Z,787.97
2018-04-07T00:33:40.874Z,787.99
2018-04-07T00:33:44.864Z,787.94
2018-04-07T00:33:48.968Z,787.98
2018-04-07T00:33:52.972Z,787.93
2018-04-07T00:33:56.963Z,787.98
2018-04-07T00:34:00.957Z,787.96
2018-04-07T00:34:05.109Z,787.96
2018-04-07T00:34:09.113Z,787.93
2018-04-07T00:34:13.111Z,787.92
2018-04-07T00:34:17.212Z,787.92
2018-04-07T00:34:21.426Z,787.92
2018-04-07T00:34:25.527Z,787.93
2018-04-07T00:34:29.741Z,787.91
2018-04-07T00:34:33.953Z,787.93
2018-04-07T00:34:38.161Z,787.91
2018-04-07T00:34:42.372Z,787.89
2018-04-07T00:34:46.257Z,787.9
2018-04-07T00:34:50.372Z,787.89
2018-04-07T00:34:54.372Z,787.91
2018-04-07T00:34:58.475Z,787.86
2018-04-07T00:35:02.474Z,787.87
2018-04-07T00:35:06.473Z,787.88
2018-04-07T00:35:10.579Z,787.88
2018-04-07T00:35:14.892Z,787.84
2018-04-07T00:35:19.106Z,787.87
2018-04-07T00:35:23.312Z,787.86
2018-04-07T00:35:27.410Z,787.86
2018-04-07T00:35:31.520Z,787.81
2018-04-07T00:35:35.843Z,787.85
2018-04-07T00:35:39.941Z,787.82
2018-04-07T00:35:44.038Z,787.84
2018-04-07T00:35:48.243Z,787.84
2018-04-07T00:35:52.451Z,787.82
2018-04-07T00:35:56.553Z,787.84
2018-04-07T00:36:00.649Z,787.84
2018-04-07T00:36:04.539Z,787.81
2018-04-07T00:36:08.534Z,787.82
2018-04-07T00:36:12.529Z,787.85
2018-04-07T00:36:16.741Z,787.81
2018-04-07T00:36:20.954Z,787.82
2018-04-07T00:36:24.946Z,787.8
2018-04-07T00:36:29.049Z,787.79
2018-04-07T00:36:32.825Z,787.81
2018-04-07T00:36:36.933Z,787.78
2018-04-07T00:36:41.146Z,787.78
2018-04-07T00:36:45.460Z,787.8
2018-04-07T00:36:49.667Z,787.76
2018-04-07T00:36:53.441Z,787.77
2018-04-07T00:36:57.435Z,787.78
2018-04-07T00:37:01.849Z,787.79
2018-04-07T00:37:05.965Z,787.8
2018-04-07T00:37:10.168Z,787.79
2018-04-07T00:37:14.370Z,787.75
2018-04-07T00:37:18.363Z,787.69
2018-04-07T00:37:22.353Z,787.7
2018-04-07T00:37:26.345Z,787.74
2018-04-07T00:37:30.230Z,787.71
2018-04-07T00:37:34.332Z,787.78
2018-04-07T00:37:38.542Z,787.77
2018-04-07T00:37:42.857Z,787.77
2018-04-07T00:37:46.999Z,787.72
2018-04-07T00:37:51.102Z,787.74
2018-04-07T00:37:55.206Z,787.71
2018-04-07T00:37:59.532Z,787.73
2018-04-07T00:38:03.778Z,787.72
2018-04-07T00:38:08.096Z,787.69
2018-04-07T00:38:12.198Z,787.74
2018-04-07T00:38:16.296Z,787.73
2018-04-07T00:38:20.612Z,787.72
2018-04-07T00:38:24.926Z,787.72
2018-04-07T00:38:29.043Z,787.7
2018-04-07T00:38:32.932Z,787.73
2018-04-07T00:38:37.247Z,787.72
2018-04-07T00:38:41.477Z,787.69
2018-04-07T00:38:45.481Z,787.7
2018-04-07T00:38:49.586Z,787.7
2018-04-07T00:38:53.792Z,787.7
2018-04-07T00:38:58.112Z,787.7
2018-04-07T00:39:02.160Z,787.67
2018-04-07T00:39:06.043Z,787.68
2018-04-07T00:39:10.044Z,787.66
2018-04-07T00:39:14.031Z,787.68
2018-04-07T00:39:18.023Z,787.58
2018-04-07T00:39:22.014Z,787.6
2018-04-07T00:39:25.893Z,787.62
2018-04-07T00:39:29.883Z,787.67
2018-04-07T00:39:33.984Z,787.68
2018-04-07T00:39:38.189Z,787.65
2018-04-07T00:39:42.408Z,787.65
2018-04-07T00:39:46.615Z,787.65
2018-04-07T00:39:50.932Z,787.65
2018-04-07T00:39:55.032Z,787.63
2018-04-07T00:39:58.918Z,787.65
2018-04-07T00:40:03.129Z,787.61
2018-04-07T00:40:07.121Z,787.64
2018-04-07T00:40:11.007Z,787.66
2018-04-07T00:40:15.113Z,787.66
2018-04-07T00:40:19.213Z,787.66
2018-04-07T00:40:23.532Z,787.61
2018-04-07T00:40:27.523Z,787.62
2018-04-07T00:40:31.415Z,787.62
2018-04-07T00:40:35.510Z,787.61
2018-04-07T00:40:39.712Z,787.68
2018-04-07T00:40:43.811Z,787.67
2018-04-07T00:40:48.018Z,787.65
2018-04-07T00:40:52.222Z,787.7
2018-04-07T00:40:56.542Z,787.7
2018-04-07T00:41:00.767Z,787.69
2018-04-07T00:41:04.774Z,787.65
2018-04-07T00:41:08.783Z,787.69
2018-04-07T00:41:12.998Z,787.69
2018-04-07T00:41:17.104Z,787.7
2018-04-07T00:41:21.220Z,787.71
2018-04-07T00:41:25.323Z,787.71
2018-04-07T00:41:29.542Z,787.69
2018-04-07T00:41:33.749Z,787.73
2018-04-07T00:41:37.962Z,787.77
2018-04-07T00:41:41.952Z,787.76
2018-04-07T00:41:45.947Z,787.76
2018-04-07T00:41:50.164Z,787.78
2018-04-07T00:41:54.054Z,787.79
2018-04-07T00:41:58.367Z,787.78
2018-04-07T00:42:02.722Z,787.82
2018-04-07T00:42:06.612Z,787.8
2018-04-07T00:42:10.721Z,787.83
2018-04-07T00:42:14.821Z,787.8
2018-04-07T00:42:19.039Z,787.84
2018-04-07T00:42:23.028Z,787.83
2018-04-07T00:42:27.237Z,787.85
2018-04-07T00:42:31.451Z,787.86
2018-04-07T00:42:35.443Z,787.85
2018-04-07T00:42:39.325Z,787.88
2018-04-07T00:42:43.535Z,787.86
2018-04-07T00:42:47.636Z,787.91
2018-04-07T00:42:51.741Z,787.88
2018-04-07T00:42:55.950Z,787.89
2018-04-07T00:43:00.059Z,787.92
2018-04-07T00:43:04.255Z,787.9
2018-04-07T00:43:08.035Z,787.94
2018-04-07T00:43:12.242Z,787.95
2018-04-07T00:43:16.352Z,787.96
2018-04-07T00:43:20.717Z,787.96
2018-04-07T00:43:24.814Z,787.97
2018-04-07T00:43:28.922Z,787.99
2018-04-07T00:43:33.031Z,787.99
2018-04-07T00:43:37.129Z,787.99
2018-04-07T00:43:41.339Z,788.02
2018-04-07T00:43:45.547Z,788.01
2018-04-07T00:43:49.648Z,788.01
2018-04-07T00:43:53.425Z,788.04
2018-04-07T00:43:57.524Z,788.07
2018-04-07T00:44:01.778Z,788.07
2018-04-07T00:44:05.880Z,788.09
2018-04-07T00:44:09.876Z,788.08
2018-04-07T00:44:13.974Z,788.07
2018-04-07T00:44:18.075Z,788.11
2018-04-07T00:44:22.176Z,788.07
2018-04-07T00:44:26.401Z,788.1
2018-04-07T00:44:30.392Z,788.11
2018-04-07T00:44:34.394Z,788.16
2018-04-07T00:44:38.280Z,788.15
2018-04-07T00:44:42.393Z,788.07
2018-04-07T00:44:46.490Z,788.17
2018-04-07T00:44:50.591Z,788.12
2018-04-07T00:44:54.596Z,788.13
2018-04-07T00:44:58.808Z,788.18
2018-04-07T00:45:03.054Z,788.16
2018-04-07T00:45:07.372Z,788.2
2018-04-07T00:45:11.578Z,788.21
2018-04-07T00:45:15.806Z,788.18
2018-04-07T00:45:20.013Z,788.17
2018-04-07T00:45:24.338Z,788.22
2018-04-07T00:45:28.437Z,788.22
2018-04-07T00:45:32.471Z,788.2
2018-04-07T00:45:36.355Z,788.22
2018-04-07T00:45:40.560Z,788.22
2018-04-07T00:45:44.665Z,788.23
2018-04-07T00:45:48.980Z,788.23
2018-04-07T00:45:53.289Z,788.26
2018-04-07T00:45:57.179Z,788.26
2018-04-07T00:46:01.170Z,788.24
2018-04-07T00:46:05.272Z,788.25
2018-04-07T00:46:09.481Z,788.27
2018-04-07T00:46:13.583Z,788.24
2018-04-07T00:46:17.621Z,788.27
2018-04-07T00:46:21.726Z,788.26
2018-04-07T00:46:25.608Z,788.26
2018-04-07T00:46:29.714Z,788.27
2018-04-07T00:46:34.027Z,788.3
2018-04-07T00:46:38.234Z,788.29
2018-04-07T00:46:42.456Z,788.3
2018-04-07T00:46:46.598Z,788.32
2018-04-07T00:46:50.810Z,788.29
2018-04-07T00:46:54.914Z,788.3
2018-04-07T00:46:59.127Z,788.27
2018-04-07T00:47:03.119Z,788.33
2018-04-07T00:47:07.324Z,788.29
2018-04-07T00:47:11.321Z,788.3
2018-04-07T00:47:15.312Z,788.3
2018-04-07T00:47:19.520Z,788.32
2018-04-07T00:47:23.726Z,788.31
2018-04-07T00:47:27.832Z,788.3
2018-04-07T00:47:31.718Z,788.32
2018-04-07T00:47:35.816Z,788.32
2018-04-07T00:47:39.918Z,788.29
2018-04-07T00:47:43.909Z,788.31
2018-04-07T00:47:47.904Z,788.31
2018-04-07T00:47:52.111Z,788.3
2018-04-07T00:47:56.213Z,788.27
2018-04-07T00:48:00.203Z,788.27
2018-04-07T00:48:04.617Z,788.31
2018-04-07T00:48:08.722Z,788.29
2018-04-07T00:48:12.831Z,788.32
2018-04-07T00:48:17.041Z,788.29
2018-04-07T00:48:21.360Z,788.31
2018-04-07T00:48:25.573Z,788.27
2018-04-07T00:48:29.513Z,788.3
2018-04-07T00:48:33.398Z,788.24
2018-04-07T00:48:37.394Z,788.24
2018-04-07T00:48:41.598Z,788.27
2018-04-07T00:48:45.697Z,788.29
2018-04-07T00:48:49.898Z,788.27
2018-04-07T00:48:54.002Z,788.28
2018-04-07T00:48:58.108Z,788.28
2018-04-07T00:49:02.215Z,788.27
2018-04-07T00:49:06.430Z,788.27
2018-04-07T00:49:10.641Z,788.27
2018-04-07T00:49:14.748Z,788.26
2018-04-07T00:49:18.949Z,788.25
2018-04-07T00:49:23.058Z,788.23
2018-04-07T00:49:27.056Z,788.25
2018-04-07T00:49:31.048Z,788.26
2018-04-07T00:49:35.256Z,788.24
2018-04-07T00:49:39.622Z,788.27
2018-04-07T00:49:43.616Z,788.23
2018-04-07T00:49:47.945Z,788.24
2018-04-07T00:49:52.048Z,788.23
2018-04-07T00:49:56.258Z,788.2
2018-04-07T00:50:00.356Z,788.23
2018-04-07T00:50:04.607Z,788.23
2018-04-07T00:50:08.494Z,788.2
2018-04-07T00:50:12.816Z,788.2
2018-04-07T00:50:16.707Z,788.19
2018-04-07T00:50:20.811Z,788.18
2018-04-07T00:50:24.619Z,788.21
2018-04-07T00:50:28.839Z,788.16
2018-04-07T00:50:32.940Z,788.19
2018-04-07T00:50:37.045Z,788.22
2018-04-07T00:50:41.249Z,788.19
2018-04-07T00:50:45.141Z,788.15
2018-04-07T00:50:49.247Z,788.11
2018-04-07T00:50:53.239Z,788.19
2018-04-07T00:50:57.019Z,788.17
2018-04-07T00:51:01.118Z,788.15
2018-04-07T00:51:05.055Z,788.16
2018-04-07T00:51:09.199Z,788.17
2018-04-07T00:51:13.408Z,788.18
2018-04-07T00:51:17.515Z,788.14
2018-04-07T00:51:21.615Z,788.16
2018-04-07T00:51:25.822Z,788.15